Time;durP1;ratioP1;P1;durP2;ratioP2;P2;SDS_P1;SDS_P2;PMS_P1;PMS_P2;Temp;Humidity;BMP_temperature;BMP_pressure;BME280_temperature;BME280_humidity;BME280_pressure;Samples;Min_cycle;Max_cycle;Signal;HPM_P1;HPM_P2
2022/05/24 00:01:25;;;;;;;4.03;2.63;;;9.60;99.90;;;;;;4958957;28;20887;-87
2022/05/24 00:03:53;;;;;;;6.95;2.55;;;9.60;99.90;;;;;;4957857;28;20414;-86
2022/05/24 00:06:31;;;;;;;7.30;2.67;;;9.60;99.90;;;;;;4946992;29;20855;-85
2022/05/24 00:09:00;;;;;;;7.32;2.90;;;9.60;99.90;;;;;;4945810;29;20435;-87
2022/05/24 00:11:33;;;;;;;5.38;2.60;;;9.50;99.90;;;;;;4937435;29;20436;-85
2022/05/24 00:14:01;;;;;;;5.80;2.70;;;9.50;99.90;;;;;;4942253;29;20419;-87
2022/05/24 00:16:28;;;;;;;6.00;2.80;;;9.50;99.90;;;;;;4934151;29;20410;-84
2022/05/24 00:18:56;;;;;;;7.22;2.70;;;9.50;99.90;;;;;;4937236;29;20742;-86
2022/05/24 00:21:25;;;;;;;4.68;3.05;;;9.50;99.90;;;;;;4939926;28;20477;-86
2022/05/24 00:23:53;;;;;;;4.18;2.67;;;9.40;99.90;;;;;;4948437;28;20452;-87
2022/05/24 00:26:31;;;;;;;5.45;2.60;;;9.40;99.90;;;;;;4942530;28;20552;-87
2022/05/24 00:28:59;;;;;;;5.07;2.83;;;9.40;99.90;;;;;;4941957;29;20924;-85
2022/05/24 00:31:27;;;;;;;7.15;2.63;;;9.40;99.90;;;;;;4937511;28;20464;-85
2022/05/24 00:33:55;;;;;;;5.97;2.60;;;9.30;99.90;;;;;;4951266;28;20420;-85
2022/05/24 00:36:23;;;;;;;4.40;2.30;;;9.40;99.90;;;;;;4945846;29;20404;-85
2022/05/24 00:38:51;;;;;;;6.15;2.90;;;9.30;99.90;;;;;;4934213;29;20420;-86
2022/05/24 00:41:25;;;;;;;5.50;2.45;;;9.30;99.90;;;;;;4939435;29;20906;-86
2022/05/24 00:44:15;;;;;;;7.22;2.70;;;9.30;99.90;;;;;;4939275;28;20442;-85
2022/05/24 00:46:54;;;;;;;5.18;2.65;;;9.30;99.90;;;;;;4935726;29;20401;-85
2022/05/24 00:49:35;;;;;;;5.50;2.50;;;9.20;99.90;;;;;;4955407;28;20417;-85
2022/05/24 00:52:20;;;;;;;5.55;2.58;;;9.30;99.90;;;;;;4946094;28;20416;-87
2022/05/24 00:54:50;;;;;;;6.97;2.90;;;9.10;99.90;;;;;;4959149;28;20476;-85
2022/05/24 00:57:32;;;;;;;5.35;2.78;;;9.10;99.90;;;;;;4950539;29;20388;-84
2022/05/24 01:00:17;;;;;;;4.50;2.70;;;9.10;99.90;;;;;;4954257;28;20436;-84
2022/05/24 01:02:46;;;;;;;4.53;2.35;;;9.10;99.90;;;;;;4954969;28;20401;-83
2022/05/24 01:05:18;;;;;;;5.43;2.63;;;9.10;99.90;;;;;;4958953;28;20400;-83
2022/05/24 01:07:46;;;;;;;4.47;2.47;;;9.10;99.90;;;;;;4954408;28;20404;-84
2022/05/24 01:10:34;;;;;;;4.63;2.83;;;9.10;99.90;;;;;;4948411;28;20399;-86
2022/05/24 01:13:04;;;;;;;6.45;2.78;;;9.10;99.90;;;;;;4947813;29;20463;-85
2022/05/24 01:15:32;;;;;;;4.72;2.67;;;9.10;99.90;;;;;;4935962;29;20419;-85
2022/05/24 01:18:00;;;;;;;4.53;2.50;;;9.00;99.90;;;;;;4943532;28;20416;-86
2022/05/24 01:20:28;;;;;;;5.60;2.58;;;8.90;99.90;;;;;;4943047;29;20496;-86
2022/05/24 01:23:30;;;;;;;5.03;2.67;;;8.80;99.90;;;;;;4958707;28;20406;-85
2022/05/24 01:26:13;;;;;;;4.65;2.45;;;8.90;99.90;;;;;;4944745;28;20421;-85
2022/05/24 01:28:57;;;;;;;5.20;2.58;;;8.90;99.90;;;;;;4955806;28;20411;-87
2022/05/24 01:36:09;;;;;;;6.18;2.50;;;8.90;99.90;;;;;;4964439;28;20884;-87
2022/05/24 01:37:10;;;;;;;4.70;2.22;;;8.90;99.90;;;;;;4966575;28;20495;-86
2022/05/24 01:39:40;;;;;;;3.77;2.50;;;8.90;99.90;;;;;;4967616;28;20420;-87
2022/05/24 01:42:11;;;;;;;4.50;2.50;;;8.80;99.90;;;;;;4944625;28;20483;-86
2022/05/24 01:45:01;;;;;;;4.00;2.60;;;8.70;99.90;;;;;;4951745;28;20411;-84
2022/05/24 01:47:31;;;;;;;3.92;2.42;;;8.70;99.90;;;;;;4940061;28;20400;-87
2022/05/24 01:50:05;;;;;;;4.82;2.50;;;8.70;99.90;;;;;;4962722;28;20404;-84
2022/05/24 01:52:48;;;;;;;4.70;2.40;;;8.70;99.90;;;;;;4941497;28;20783;-86
2022/05/24 01:55:40;;;;;;;4.10;2.50;;;8.50;99.90;;;;;;4959619;28;20419;-87
2022/05/24 01:58:12;;;;;;;3.25;2.40;;;8.60;99.90;;;;;;4963707;28;20433;-85
2022/05/24 02:00:46;;;;;;;4.20;2.33;;;8.60;99.90;;;;;;4965963;28;20450;-87
2022/05/24 02:03:17;;;;;;;4.47;2.80;;;8.70;99.90;;;;;;4958988;28;20409;-87
2022/05/24 02:05:52;;;;;;;4.35;2.47;;;8.60;99.90;;;;;;4963648;28;20491;-84
2022/05/24 02:08:21;;;;;;;4.82;2.13;;;8.70;99.90;;;;;;4959602;28;20430;-86
2022/05/24 02:11:06;;;;;;;5.82;2.75;;;8.60;99.90;;;;;;4954458;28;20415;-85
2022/05/24 02:13:40;;;;;;;4.03;2.40;;;8.60;99.90;;;;;;4962206;28;20464;-86
2022/05/24 02:16:13;;;;;;;4.70;2.40;;;8.50;99.90;;;;;;4930118;29;20423;-87
2022/05/24 02:18:44;;;;;;;4.80;2.45;;;8.40;99.90;;;;;;4962188;28;20495;-86
2022/05/24 02:21:12;;;;;;;6.03;2.40;;;8.40;99.90;;;;;;4953034;28;20487;-86
2022/05/24 02:23:43;;;;;;;3.67;2.13;;;8.50;99.90;;;;;;4962783;28;20508;-86
2022/05/24 02:26:13;;;;;;;4.18;2.53;;;8.40;99.90;;;;;;4953270;28;20418;-85
2022/05/24 02:28:43;;;;;;;5.40;2.43;;;8.40;99.90;;;;;;4968704;28;20406;-86
2022/05/24 02:31:14;;;;;;;5.47;2.42;;;8.40;99.90;;;;;;4965683;28;20411;-87
2022/05/24 02:33:42;;;;;;;4.50;2.42;;;8.40;99.90;;;;;;4944484;28;20496;-85
2022/05/24 02:36:09;;;;;;;4.72;2.40;;;8.50;99.90;;;;;;4963049;28;20413;-87
2022/05/24 02:38:38;;;;;;;3.70;2.35;;;8.50;99.90;;;;;;4964730;28;20495;-86
2022/05/24 02:43:53;;;;;;;4.85;2.53;;;8.40;99.90;;;;;;4961327;28;20431;-86
2022/05/24 02:46:21;;;;;;;4.35;2.25;;;8.40;99.90;;;;;;4940226;28;20407;-87
2022/05/24 02:48:48;;;;;;;3.50;2.30;;;8.40;99.90;;;;;;4951309;28;20883;-86
2022/05/24 02:51:17;;;;;;;5.32;2.45;;;8.40;99.90;;;;;;4950863;28;20400;-87
2022/05/24 02:53:48;;;;;;;4.25;2.22;;;8.40;99.90;;;;;;4961633;28;20432;-88
2022/05/24 02:56:15;;;;;;;4.90;2.50;;;8.40;99.90;;;;;;4960566;28;20412;-86
2022/05/24 02:58:43;;;;;;;4.82;2.50;;;8.30;99.90;;;;;;4936652;28;20991;-86
2022/05/24 03:01:25;;;;;;;3.50;2.35;;;8.30;99.90;;;;;;4944155;28;20494;-87
2022/05/24 03:03:54;;;;;;;3.65;2.38;;;8.30;99.90;;;;;;4965889;28;20933;-85
2022/05/24 03:06:23;;;;;;;5.60;2.67;;;8.30;99.90;;;;;;4957352;28;20635;-85
2022/05/24 03:14:25;;;;;;;4.45;2.45;;;8.30;99.90;;;;;;4958614;28;20399;-87
2022/05/24 03:16:53;;;;;;;3.85;2.45;;;8.30;99.90;;;;;;4960621;28;20435;-83
2022/05/24 03:19:22;;;;;;;3.63;2.30;;;8.30;99.90;;;;;;4952836;28;20421;-87
2022/05/24 03:21:50;;;;;;;4.63;2.50;;;8.30;99.90;;;;;;4920212;28;20498;-86
2022/05/24 03:24:18;;;;;;;4.65;2.55;;;8.30;99.90;;;;;;4964732;28;20414;-85
2022/05/24 03:26:46;;;;;;;5.13;2.38;;;8.30;99.90;;;;;;4965733;28;20840;-85
2022/05/24 03:29:14;;;;;;;4.07;2.50;;;8.30;99.90;;;;;;4950427;29;20400;-86
2022/05/24 03:31:42;;;;;;;3.28;2.08;;;8.30;99.90;;;;;;4956472;28;20446;-87
2022/05/24 03:34:09;;;;;;;3.58;2.53;;;8.40;99.90;;;;;;4939150;28;20536;-87
2022/05/24 03:36:37;;;;;;;4.28;2.28;;;8.40;99.90;;;;;;4963926;28;20413;-87
2022/05/24 03:39:07;;;;;;;6.68;2.55;;;8.30;99.90;;;;;;4956926;28;20913;-86
2022/05/24 03:41:35;;;;;;;4.78;2.60;;;8.40;99.90;;;;;;4960242;28;20510;-87
2022/05/24 03:44:04;;;;;;;4.13;2.13;;;8.30;99.90;;;;;;4959084;28;20491;-87
2022/05/24 03:46:32;;;;;;;3.85;2.50;;;8.40;99.90;;;;;;4955107;28;20464;-85
2022/05/24 03:49:00;;;;;;;3.80;2.47;;;8.40;99.90;;;;;;4961265;28;20410;-86
2022/05/24 03:51:28;;;;;;;4.37;2.30;;;8.40;99.90;;;;;;4946044;28;20433;-86
2022/05/24 03:53:56;;;;;;;6.55;2.58;;;8.40;99.90;;;;;;4942614;29;20446;-85
2022/05/24 03:56:26;;;;;;;2.88;2.10;;;8.40;99.90;;;;;;4945013;28;20414;-86
2022/05/24 03:58:54;;;;;;;8.05;2.65;;;8.50;99.90;;;;;;4937685;29;20788;-82
2022/05/24 04:01:23;;;;;;;4.65;2.60;;;8.50;99.90;;;;;;4955804;28;20416;-85
2022/05/24 04:03:51;;;;;;;4.55;2.30;;;8.50;99.90;;;;;;4940704;28;20436;-86
2022/05/24 04:06:18;;;;;;;3.92;2.45;;;8.50;99.90;;;;;;4948230;28;20470;-86
2022/05/24 04:08:46;;;;;;;6.13;2.40;;;8.60;99.90;;;;;;4944428;28;20410;-86
2022/05/24 04:11:14;;;;;;;2.85;2.17;;;8.60;99.90;;;;;;4944469;28;20443;-85
2022/05/24 04:13:42;;;;;;;4.30;2.42;;;8.70;99.90;;;;;;4944568;29;20513;-87
2022/05/24 04:16:11;;;;;;;5.40;2.73;;;8.80;99.90;;;;;;4935908;29;20453;-83
2022/05/24 04:18:39;;;;;;;4.22;2.33;;;8.80;99.90;;;;;;4955681;28;20418;-85
2022/05/24 04:21:06;;;;;;;5.28;3.05;;;8.90;99.90;;;;;;4946802;28;20841;-84
2022/05/24 04:23:41;;;;;;;4.13;2.70;;;8.90;99.90;;;;;;4936133;29;20448;-84
2022/05/24 04:26:08;;;;;;;4.30;2.55;;;9.00;99.90;;;;;;4937333;29;20996;-83
2022/05/24 04:28:36;;;;;;;5.87;3.50;;;9.10;99.90;;;;;;4936961;28;20398;-83
2022/05/24 04:31:04;;;;;;;6.75;2.60;;;9.20;99.90;;;;;;4931050;29;20452;-83
2022/05/24 04:33:32;;;;;;;3.80;2.30;;;9.20;99.90;;;;;;4940421;29;20454;-84
2022/05/24 04:36:00;;;;;;;4.57;2.30;;;9.30;99.90;;;;;;4947175;29;20406;-84
2022/05/24 04:38:28;;;;;;;4.10;2.55;;;9.30;99.90;;;;;;4938996;29;20407;-84
2022/05/24 04:43:42;;;;;;;3.65;2.50;;;9.50;99.90;;;;;;4955745;28;20450;-83
2022/05/24 04:46:09;;;;;;;4.70;2.50;;;9.50;99.90;;;;;;4955054;28;20396;-84
2022/05/24 04:48:40;;;;;;;5.03;2.60;;;9.60;99.90;;;;;;4930142;29;20390;-83
2022/05/24 04:51:08;;;;;;;4.90;2.35;;;9.60;99.90;;;;;;4936459;29;20408;-84
2022/05/24 04:53:35;;;;;;;3.63;2.40;;;9.60;99.90;;;;;;4960136;28;20420;-84
2022/05/24 04:56:04;;;;;;;5.72;3.15;;;9.70;99.90;;;;;;4953583;28;20841;-84
2022/05/24 04:58:31;;;;;;;5.47;2.25;;;9.80;99.90;;;;;;4958332;28;20416;-83
2022/05/24 05:00:59;;;;;;;5.00;2.30;;;9.90;99.90;;;;;;4960442;28;20410;-84
2022/05/24 05:03:27;;;;;;;5.15;2.42;;;10.00;99.90;;;;;;4939419;28;20422;-84
2022/05/24 05:05:56;;;;;;;4.43;2.47;;;10.00;99.90;;;;;;4935969;28;20917;-84
2022/05/24 05:08:24;;;;;;;3.83;2.40;;;10.10;99.90;;;;;;4941816;28;20405;-86
2022/05/24 05:10:52;;;;;;;5.57;2.63;;;10.30;99.90;;;;;;4959826;28;20414;-86
2022/05/24 05:13:20;;;;;;;4.80;2.70;;;10.40;99.90;;;;;;4949035;28;20560;-86
2022/05/24 05:15:48;;;;;;;4.10;2.20;;;10.50;99.90;;;;;;4961006;28;20456;-85
2022/05/24 05:18:18;;;;;;;4.70;2.45;;;10.60;99.90;;;;;;4963005;28;20417;-87
2022/05/24 05:20:47;;;;;;;4.60;2.90;;;10.60;99.90;;;;;;4952862;28;20428;-87
2022/05/24 05:23:16;;;;;;;6.28;3.47;;;10.70;99.90;;;;;;4963090;28;20509;-85
2022/05/24 05:25:49;;;;;;;5.28;2.95;;;10.90;99.90;;;;;;4940367;28;20742;-87
2022/05/24 05:28:18;;;;;;;3.63;2.50;;;11.00;99.90;;;;;;4938209;29;20762;-88
2022/05/24 05:33:35;;;;;;;5.95;2.92;;;11.20;99.90;;;;;;4965908;28;20401;-89
2022/05/24 05:36:03;;;;;;;3.78;2.35;;;11.30;99.90;;;;;;4952796;28;20410;-88
2022/05/24 05:38:32;;;;;;;4.43;3.27;;;11.40;99.90;;;;;;4953684;28;20411;-88
2022/05/24 05:41:00;;;;;;;5.10;2.65;;;11.50;99.90;;;;;;4960770;28;20489;-87
2022/05/24 05:43:28;;;;;;;5.07;2.75;;;11.60;99.90;;;;;;4960989;28;20419;-87
2022/05/24 05:46:03;;;;;;;4.47;2.65;;;11.60;99.90;;;;;;4956674;28;20449;-89
2022/05/24 05:48:31;;;;;;;4.03;2.30;;;11.70;99.90;;;;;;4961918;28;20410;-88
2022/05/24 05:50:59;;;;;;;4.75;2.40;;;11.70;99.90;;;;;;4952497;28;20468;-88
2022/05/24 05:53:26;;;;;;;3.50;2.30;;;11.80;99.90;;;;;;4962859;28;20410;-87
2022/05/24 05:55:54;;;;;;;4.43;2.40;;;12.00;99.90;;;;;;4953174;28;20468;-87
2022/05/24 05:58:22;;;;;;;4.07;2.42;;;12.00;99.90;;;;;;4953408;28;20901;-87
2022/05/24 06:00:50;;;;;;;4.30;2.45;;;12.10;99.90;;;;;;4952051;28;20495;-87
2022/05/24 06:03:18;;;;;;;5.35;2.33;;;12.10;99.90;;;;;;4962135;28;20387;-86
2022/05/24 06:05:50;;;;;;;3.47;2.28;;;12.30;99.90;;;;;;4964565;28;20396;-87
2022/05/24 06:08:18;;;;;;;5.37;2.37;;;12.30;99.90;;;;;;4952506;28;20808;-87
2022/05/24 06:10:48;;;;;;;4.43;2.30;;;12.40;99.90;;;;;;4958131;28;20440;-88
2022/05/24 06:13:18;;;;;;;4.03;2.30;;;12.70;99.90;;;;;;4956637;28;20451;-87
2022/05/24 06:15:51;;;;;;;3.75;1.80;;;12.80;99.90;;;;;;4957483;28;20411;-87
2022/05/24 06:18:19;;;;;;;5.77;2.20;;;12.90;99.90;;;;;;4977634;28;20417;-87
2022/05/24 06:20:47;;;;;;;5.00;2.30;;;13.00;99.90;;;;;;4953032;28;20417;-86
2022/05/24 06:23:15;;;;;;;3.63;2.13;;;12.90;99.90;;;;;;4962818;28;20418;-88
2022/05/24 06:25:42;;;;;;;4.00;2.10;;;13.00;99.90;;;;;;4950321;28;20442;-88
2022/05/24 06:28:15;;;;;;;2.97;2.25;;;13.20;99.90;;;;;;4956555;28;20396;-86
2022/05/24 06:30:44;;;;;;;5.47;2.03;;;13.30;99.90;;;;;;4940620;29;20471;-87
2022/05/24 06:33:13;;;;;;;3.53;2.22;;;13.30;99.90;;;;;;4946016;28;20468;-88
2022/05/24 06:35:45;;;;;;;4.50;2.38;;;13.30;99.90;;;;;;4953623;28;20442;-86
2022/05/24 06:38:13;;;;;;;3.92;1.90;;;13.20;99.90;;;;;;4952808;28;20574;-87
2022/05/24 06:40:41;;;;;;;4.53;2.00;;;13.20;99.90;;;;;;4964915;28;20415;-88
2022/05/24 06:43:10;;;;;;;3.90;2.40;;;13.40;99.90;;;;;;4978373;28;20399;-87
2022/05/24 06:45:39;;;;;;;4.07;2.10;;;13.50;99.90;;;;;;4959642;28;20427;-88
2022/05/24 06:48:10;;;;;;;4.20;2.10;;;13.80;99.90;;;;;;4942598;28;20416;-87
2022/05/24 06:50:40;;;;;;;4.68;2.22;;;13.60;99.90;;;;;;4953619;28;20418;-87
2022/05/24 06:53:09;;;;;;;3.10;2.10;;;13.60;99.90;;;;;;4950789;28;20442;-87
2022/05/24 06:55:37;;;;;;;4.83;2.20;;;13.70;99.90;;;;;;4956563;28;20415;-88
2022/05/24 06:58:06;;;;;;;3.22;2.00;;;13.70;99.90;;;;;;4937719;28;20431;-88
2022/05/24 07:03:33;;;;;;;2.85;1.83;;;13.80;99.90;;;;;;4941705;28;20415;-87
2022/05/24 07:06:01;;;;;;;3.03;2.13;;;14.00;99.90;;;;;;4951428;28;20461;-87
2022/05/24 07:08:28;;;;;;;3.30;2.03;;;14.00;99.90;;;;;;4968250;28;21023;-86
2022/05/24 07:10:56;;;;;;;3.60;2.10;;;14.00;99.90;;;;;;4962337;28;20495;-86
2022/05/24 07:13:24;;;;;;;5.38;2.28;;;14.10;99.90;;;;;;4950223;28;20485;-86
2022/05/24 07:15:51;;;;;;;4.00;2.13;;;14.20;99.90;;;;;;4950831;28;20431;-85
2022/05/24 07:18:20;;;;;;;3.80;2.30;;;14.10;99.90;;;;;;4963243;28;20415;-86
2022/05/24 07:20:47;;;;;;;6.70;2.30;;;14.30;99.90;;;;;;4963141;28;20503;-88
2022/05/24 07:23:18;;;;;;;3.35;2.03;;;14.30;99.90;;;;;;4932145;28;20471;-87
2022/05/24 07:25:47;;;;;;;3.60;2.10;;;14.30;99.90;;;;;;4938005;28;20462;-86
2022/05/24 07:28:23;;;;;;;4.70;2.00;;;14.50;99.90;;;;;;4937453;29;20736;-86
2022/05/24 07:30:50;;;;;;;4.03;2.10;;;14.50;99.90;;;;;;4958293;28;20440;-87
2022/05/24 07:33:19;;;;;;;3.30;1.92;;;14.40;99.90;;;;;;4963509;28;20421;-85
2022/05/24 07:35:46;;;;;;;5.00;2.20;;;14.30;99.90;;;;;;4934124;28;20401;-87
2022/05/24 07:38:14;;;;;;;5.63;2.30;;;14.40;99.90;;;;;;4939255;28;20416;-87
2022/05/24 07:46:30;;;;;;;5.53;2.40;;;14.30;99.90;;;;;;4956547;28;20821;-86
2022/05/24 07:48:59;;;;;;;3.30;1.93;;;14.30;99.90;;;;;;4960214;28;20408;-86
2022/05/24 07:51:27;;;;;;;3.55;2.30;;;14.20;99.90;;;;;;4948654;28;20476;-86
2022/05/24 07:53:55;;;;;;;3.17;2.20;;;14.20;99.90;;;;;;4940090;29;20516;-86
2022/05/24 07:56:23;;;;;;;3.75;2.20;;;14.50;99.90;;;;;;4943130;29;20984;-86
2022/05/24 07:58:52;;;;;;;4.93;2.28;;;14.80;99.90;;;;;;4933923;29;20417;-86
2022/05/24 08:01:23;;;;;;;3.60;2.05;;;14.90;99.90;;;;;;4930634;29;20445;-86
2022/05/24 08:03:51;;;;;;;4.90;2.38;;;15.10;99.90;;;;;;4924561;29;20421;-87
2022/05/24 08:06:19;;;;;;;4.57;2.40;;;15.10;99.90;;;;;;4924047;29;20476;-88
2022/05/24 08:08:47;;;;;;;4.20;2.07;;;15.20;99.90;;;;;;4937019;29;20394;-87
2022/05/24 08:11:15;;;;;;;4.10;2.20;;;15.30;99.90;;;;;;4920539;29;20812;-86
2022/05/24 08:13:43;;;;;;;4.35;3.10;;;15.50;99.90;;;;;;4939340;29;20412;-85
2022/05/24 08:16:11;;;;;;;8.27;4.78;;;15.50;99.90;;;;;;4937562;28;20414;-86
2022/05/24 08:18:39;;;;;;;5.23;2.60;;;15.70;99.90;;;;;;4939467;29;20872;-87
2022/05/24 08:21:07;;;;;;;5.07;2.50;;;15.60;99.90;;;;;;4946490;28;20414;-87
2022/05/24 08:23:36;;;;;;;3.85;2.20;;;15.60;99.90;;;;;;4939346;29;20505;-86
2022/05/24 08:26:04;;;;;;;3.95;2.17;;;15.80;99.90;;;;;;4938353;29;20412;-86
2022/05/24 08:28:31;;;;;;;4.78;2.60;;;15.90;99.90;;;;;;4949419;28;20880;-87
2022/05/24 08:31:08;;;;;;;6.75;2.30;;;16.20;99.90;;;;;;4936907;29;20892;-87
2022/05/24 08:33:37;;;;;;;3.60;2.20;;;16.20;99.90;;;;;;4951839;28;20503;-86
2022/05/24 08:36:05;;;;;;;4.27;2.00;;;16.10;99.90;;;;;;4915741;29;20426;-86
2022/05/24 08:38:32;;;;;;;4.65;2.20;;;16.00;99.90;;;;;;4950463;29;20420;-86
2022/05/24 08:41:03;;;;;;;3.90;2.10;;;15.90;99.90;;;;;;4941195;29;20417;-86
2022/05/24 08:50:03;;;;;;;3.30;1.80;;;16.30;99.90;;;;;;4947383;28;20416;-85
2022/05/24 08:52:39;;;;;;;3.40;1.92;;;16.40;99.90;;;;;;4950483;28;20768;-85
2022/05/24 08:55:11;;;;;;;3.97;1.80;;;16.30;99.90;;;;;;4949678;29;20785;-86
2022/05/24 08:57:42;;;;;;;3.70;2.00;;;16.30;99.90;;;;;;4946789;29;20398;-86
2022/05/24 09:00:15;;;;;;;3.53;2.58;;;16.70;99.90;;;;;;4945857;29;20412;-85
2022/05/24 09:02:46;;;;;;;3.50;2.20;;;16.80;99.90;;;;;;4925943;29;20454;-86
2022/05/24 09:05:22;;;;;;;2.45;1.75;;;16.80;99.90;;;;;;4933864;29;20394;-85
2022/05/24 09:08:17;;;;;;;3.40;2.17;;;16.60;99.90;;;;;;4944676;29;20764;-85
2022/05/24 09:10:54;;;;;;;4.57;2.20;;;16.70;99.90;;;;;;4945578;28;20451;-85
2022/05/24 09:13:50;;;;;;;3.97;2.30;;;16.80;99.90;;;;;;4936638;29;20412;-85
2022/05/24 09:16:18;;;;;;;3.42;2.13;;;16.90;99.90;;;;;;4923005;28;20418;-85
2022/05/24 09:19:22;;;;;;;4.53;2.00;;;16.90;99.90;;;;;;4947419;29;20414;-84
2022/05/24 09:21:53;;;;;;;3.58;2.00;;;17.00;99.90;;;;;;4935278;29;20416;-85
2022/05/24 09:24:44;;;;;;;3.33;2.10;;;16.90;99.90;;;;;;4949235;28;20884;-85
2022/05/24 09:27:18;;;;;;;4.17;2.27;;;16.90;99.90;;;;;;4942227;29;20410;-84
2022/05/24 09:30:08;;;;;;;4.93;2.17;;;17.10;99.90;;;;;;4936493;29;20487;-85
2022/05/24 09:32:42;;;;;;;4.22;1.95;;;17.20;99.90;;;;;;4948050;29;20496;-85
2022/05/24 09:35:10;;;;;;;4.13;2.50;;;17.20;99.90;;;;;;4948922;29;20403;-85
2022/05/24 09:37:41;;;;;;;3.30;2.40;;;17.30;99.90;;;;;;4952270;28;20443;-85
2022/05/24 09:40:21;;;;;;;4.85;2.20;;;17.40;99.90;;;;;;4944009;28;20753;-86
2022/05/24 09:42:50;;;;;;;3.67;1.85;;;17.20;99.90;;;;;;4942044;29;20421;-85
2022/05/24 09:45:27;;;;;;;4.97;1.80;;;17.10;99.90;;;;;;4939964;29;20492;-85
2022/05/24 09:47:58;;;;;;;3.22;2.00;;;17.10;99.90;;;;;;4944876;28;20500;-85
2022/05/24 09:50:33;;;;;;;9.15;2.88;;;17.20;99.90;;;;;;4961604;28;20413;-85
2022/05/24 09:53:17;;;;;;;2.97;1.83;;;17.20;99.90;;;;;;4945242;28;20413;-85
2022/05/24 09:56:01;;;;;;;4.43;2.00;;;17.30;99.90;;;;;;4954188;28;20446;-85
2022/05/24 09:58:50;;;;;;;3.80;2.05;;;17.30;99.90;;;;;;4946215;29;20507;-85
2022/05/24 10:01:37;;;;;;;4.28;1.80;;;17.40;99.90;;;;;;4962620;28;20453;-85
2022/05/24 10:04:23;;;;;;;4.53;1.83;;;17.40;99.90;;;;;;5019384;28;20931;-85
2022/05/24 10:06:55;;;;;;;3.80;2.20;;;17.40;99.90;;;;;;4948776;28;20417;-85
2022/05/24 10:09:45;;;;;;;3.30;1.75;;;17.50;99.90;;;;;;4940024;28;20458;-87
2022/05/24 10:12:37;;;;;;;2.92;1.80;;;17.50;99.60;;;;;;4941132;28;20412;-85
2022/05/24 10:15:11;;;;;;;4.22;1.75;;;17.30;99.90;;;;;;4963332;28;20405;-85
2022/05/24 10:17:58;;;;;;;2.45;1.80;;;17.20;99.30;;;;;;4942300;28;20415;-85
2022/05/24 10:20:55;;;;;;;3.22;1.70;;;17.20;99.90;;;;;;4954474;28;20420;-84
2022/05/24 10:23:34;;;;;;;3.97;2.30;;;17.30;99.90;;;;;;4948236;28;20411;-85
2022/05/24 10:26:15;;;;;;;4.85;2.20;;;17.20;99.90;;;;;;4943950;28;20531;-84
2022/05/24 10:28:53;;;;;;;3.05;2.03;;;17.30;99.90;;;;;;4938145;29;20392;-85
2022/05/24 10:31:50;;;;;;;2.75;1.80;;;17.20;99.90;;;;;;4954997;28;20912;-84
2022/05/24 10:40:23;;;;;;;3.85;1.92;;;17.20;99.90;;;;;;4974992;28;20502;-84
2022/05/24 10:43:15;;;;;;;3.38;2.00;;;17.20;99.90;;;;;;4959560;28;20408;-84
2022/05/24 10:45:50;;;;;;;2.40;1.60;;;17.20;99.90;;;;;;4956529;28;20913;-84
2022/05/24 10:48:25;;;;;;;3.15;1.90;;;17.40;99.90;;;;;;4937957;29;20408;-84
2022/05/24 10:51:00;;;;;;;2.78;1.70;;;17.50;99.90;;;;;;4955364;28;20467;-84
2022/05/24 10:53:45;;;;;;;2.70;1.77;;;17.80;99.90;;;;;;4961641;28;20407;-84
2022/05/24 10:56:59;;;;;;;2.10;1.73;;;18.10;99.90;;;;;;4957261;28;20413;-84
2022/05/24 10:59:49;;;;;;;3.30;1.85;;;18.20;99.90;;;;;;4996031;28;20457;-83
2022/05/24 11:02:32;;;;;;;3.40;1.70;;;18.20;99.90;;;;;;4946946;29;20416;-84
2022/05/24 11:05:31;;;;;;;2.73;1.60;;;18.40;99.90;;;;;;4955438;28;20436;-84
2022/05/24 11:08:14;;;;;;;4.03;1.90;;;18.60;99.90;;;;;;4943064;29;20432;-84
2022/05/24 11:10:45;;;;;;;2.67;1.85;;;18.70;99.90;;;;;;4961642;28;20411;-83
2022/05/24 11:13:19;;;;;;;3.72;1.92;;;18.90;99.90;;;;;;4957142;28;20436;-84
2022/05/24 11:15:55;;;;;;;3.60;1.80;;;18.90;99.90;;;;;;4956079;28;20406;-84
2022/05/24 11:18:34;;;;;;;4.85;2.00;;;18.90;99.90;;;;;;4925937;28;20462;-84
2022/05/24 11:21:10;;;;;;;5.67;2.20;;;19.20;99.90;;;;;;4963089;28;20411;-84
2022/05/24 11:23:57;;;;;;;4.37;1.80;;;18.80;99.90;;;;;;4960342;28;20499;-83
2022/05/24 11:26:31;;;;;;;3.70;2.13;;;18.70;99.90;;;;;;4947571;29;20415;-84
2022/05/24 11:29:19;;;;;;;2.25;1.65;;;18.40;99.90;;;;;;4953231;28;20401;-84
2022/05/24 11:31:51;;;;;;;2.57;1.93;;;18.40;99.90;;;;;;4963961;28;20993;-84
2022/05/24 11:34:30;;;;;;;3.30;1.67;;;18.30;99.90;;;;;;4958196;28;20493;-83
2022/05/24 11:37:13;;;;;;;3.60;1.80;;;18.20;99.90;;;;;;4950924;28;20411;-85
2022/05/24 11:39:43;;;;;;;3.15;1.60;;;18.20;99.90;;;;;;4957013;28;20787;-85
2022/05/24 11:42:34;;;;;;;3.40;1.83;;;18.20;99.90;;;;;;4963690;28;20414;-84
2022/05/24 11:45:34;;;;;;;3.83;1.80;;;18.10;99.90;;;;;;4958254;28;20415;-84
2022/05/24 11:48:07;;;;;;;2.08;1.50;;;18.30;98.80;;;;;;4960946;28;20404;-84
2022/05/24 11:50:39;;;;;;;3.33;1.95;;;18.60;99.90;;;;;;4962687;28;20413;-85
2022/05/24 11:53:09;;;;;;;4.28;1.92;;;19.00;99.90;;;;;;4956580;28;20502;-84
2022/05/24 11:56:09;;;;;;;3.15;1.92;;;19.20;99.80;;;;;;4957628;28;20414;-84
2022/05/24 11:58:37;;;;;;;3.67;1.75;;;19.40;99.90;;;;;;4955108;28;20399;-84
2022/05/24 12:01:16;;;;;;;3.63;1.90;;;19.30;99.90;;;;;;4954273;28;20417;-85
2022/05/24 12:10:11;;;;;;;2.75;1.90;;;19.00;99.40;;;;;;4954365;28;20404;-84
2022/05/24 12:12:46;;;;;;;2.83;1.67;;;18.90;99.30;;;;;;4953145;28;20408;-84
2022/05/24 12:15:18;;;;;;;3.97;1.88;;;18.80;97.30;;;;;;4947541;28;20907;-85
2022/05/24 12:17:52;;;;;;;2.88;1.80;;;18.70;99.40;;;;;;4938045;28;20453;-84
2022/05/24 12:20:35;;;;;;;3.28;1.90;;;18.70;99.90;;;;;;4947907;28;20401;-82
2022/05/24 12:23:06;;;;;;;2.72;2.10;;;18.60;97.00;;;;;;4924952;28;20552;-84
2022/05/24 12:26:03;;;;;;;4.40;2.00;;;18.50;98.70;;;;;;4953694;28;20412;-83
2022/05/24 12:28:36;;;;;;;4.10;2.03;;;18.40;99.90;;;;;;4939425;28;20405;-84
2022/05/24 12:31:13;;;;;;;4.93;2.13;;;18.70;99.70;;;;;;4957027;28;20406;-85
2022/05/24 12:33:53;;;;;;;2.92;1.90;;;19.10;99.30;;;;;;4942531;28;20503;-85
2022/05/24 12:36:29;;;;;;;4.67;2.23;;;19.50;99.90;;;;;;4934255;28;20898;-86
2022/05/24 12:39:20;;;;;;;4.05;1.95;;;19.70;98.10;;;;;;4958726;28;20820;-86
2022/05/24 12:41:58;;;;;;;4.30;1.98;;;19.80;95.40;;;;;;4939632;28;20624;-84
2022/05/24 12:44:39;;;;;;;4.85;2.17;;;19.90;94.50;;;;;;4951156;28;20415;-86
2022/05/24 12:47:06;;;;;;;3.55;1.90;;;20.00;96.40;;;;;;4944063;28;20499;-85
2022/05/24 12:49:56;;;;;;;4.25;2.00;;;20.20;94.80;;;;;;4944981;28;20426;-86
2022/05/24 12:52:27;;;;;;;4.95;1.80;;;20.30;98.60;;;;;;4954121;28;20515;-87
2022/05/24 12:55:01;;;;;;;3.75;1.98;;;20.40;93.00;;;;;;4956890;28;20448;-85
2022/05/24 12:57:35;;;;;;;4.13;1.80;;;20.50;94.30;;;;;;4941957;28;20450;-85
2022/05/24 13:00:09;;;;;;;4.15;2.08;;;20.60;93.20;;;;;;4951985;28;20421;-86
2022/05/24 13:02:44;;;;;;;3.95;1.80;;;20.40;96.10;;;;;;4938572;29;20424;-87
2022/05/24 13:05:29;;;;;;;3.47;1.80;;;20.50;98.10;;;;;;4949273;28;20887;-87
2022/05/24 13:07:59;;;;;;;2.97;1.83;;;20.80;93.70;;;;;;4941974;28;20841;-86
2022/05/24 13:10:30;;;;;;;3.55;2.00;;;20.90;96.30;;;;;;4950660;28;20766;-85
2022/05/24 13:13:14;;;;;;;3.53;1.92;;;21.00;94.60;;;;;;4949315;28;20494;-87
2022/05/24 13:15:50;;;;;;;4.60;1.90;;;20.90;93.80;;;;;;4933906;28;20557;-85
2022/05/24 13:18:25;;;;;;;3.42;1.70;;;21.00;94.60;;;;;;4944413;28;20417;-85
2022/05/24 13:21:04;;;;;;;2.78;2.00;;;20.90;90.60;;;;;;4952154;28;20406;-84
2022/05/24 13:23:34;;;;;;;2.67;1.65;;;20.90;94.10;;;;;;4954615;28;20418;-86
2022/05/24 13:26:01;;;;;;;3.50;1.90;;;21.10;93.80;;;;;;4938649;28;20410;-87
2022/05/24 13:28:51;;;;;;;5.25;1.85;;;21.30;92.20;;;;;;4955809;28;20440;-85
2022/05/24 13:34:30;;;;;;;2.90;1.55;;;21.40;92.50;;;;;;4953310;29;20419;-86
2022/05/24 13:37:01;;;;;;;5.20;1.92;;;21.50;91.30;;;;;;4937885;29;20430;-87
2022/05/24 13:39:44;;;;;;;3.40;1.70;;;21.60;91.50;;;;;;4944734;28;20412;-86
2022/05/24 13:42:26;;;;;;;4.05;1.80;;;21.60;94.30;;;;;;4964009;28;20505;-87
2022/05/24 13:45:08;;;;;;;3.58;1.85;;;21.60;93.20;;;;;;5031102;28;20433;-85
2022/05/24 13:47:40;;;;;;;3.00;1.83;;;21.60;91.10;;;;;;4960787;28;20410;-85
2022/05/24 13:50:26;;;;;;;2.77;1.60;;;21.70;91.10;;;;;;4963998;28;20966;-86
2022/05/24 13:52:58;;;;;;;4.57;2.30;;;21.90;91.40;;;;;;4966142;28;20450;-85
2022/05/24 13:56:02;;;;;;;4.00;2.10;;;21.80;93.30;;;;;;4962392;28;20418;-86
2022/05/24 13:58:39;;;;;;;6.55;2.00;;;21.90;93.60;;;;;;4945609;29;20444;-85
2022/05/24 14:01:41;;;;;;;4.13;1.87;;;21.90;90.20;;;;;;4967747;28;20453;-83
2022/05/24 14:04:22;;;;;;;3.80;1.83;;;21.90;91.90;;;;;;4941142;28;20541;-85
2022/05/24 14:06:54;;;;;;;5.18;2.10;;;21.90;93.30;;;;;;4940655;28;20404;-84
2022/05/24 14:09:23;;;;;;;3.65;2.10;;;21.90;92.30;;;;;;4955112;28;20450;-86
2022/05/24 14:11:53;;;;;;;4.32;1.67;;;21.90;93.10;;;;;;4952849;28;20409;-84